createdAt,value
2022-11-26T00:00:52.435Z,6.02
2022-11-26T00:02:53.553Z,6.01
2022-11-26T00:04:54.718Z,5.99
2022-11-26T00:06:55.942Z,5.93
2022-11-26T00:08:57.419Z,5.85
2022-11-26T00:10:58.420Z,5.79
2022-11-26T00:13:00.228Z,5.89
2022-11-26T00:15:01.743Z,5.86
2022-11-26T00:17:03.141Z,5.8
2022-11-26T00:19:04.708Z,5.85
2022-11-26T00:21:06.200Z,5.8
2022-11-26T00:23:07.259Z,5.77
2022-11-26T00:25:53.004Z,5.6
2022-11-26T00:27:54.163Z,5.54
2022-11-26T00:29:55.348Z,5.46
2022-11-26T00:31:56.560Z,5.49
2022-11-26T00:33:58.368Z,5.41
2022-11-26T00:35:59.817Z,5.47
2022-11-26T00:38:01.175Z,5.58
2022-11-26T00:40:02.529Z,5.52
2022-11-26T00:42:03.731Z,5.43
2022-11-26T00:44:05.508Z,5.5
2022-11-26T00:46:07.457Z,5.57
2022-11-26T00:48:08.430Z,5.49
2022-11-26T00:50:10.330Z,5.47
2022-11-26T00:52:12.140Z,5.47
2022-11-26T00:54:13.688Z,5.47
2022-11-26T00:56:14.704Z,5.51
2022-11-26T00:58:16.521Z,5.56
2022-11-26T01:00:18.174Z,5.62
2022-11-26T01:02:19.683Z,5.63
2022-11-26T01:04:21.446Z,5.74
2022-11-26T01:06:22.675Z,5.74
2022-11-26T01:10:25.373Z,5.81
2022-11-26T01:12:27.223Z,5.84
2022-11-26T01:14:28.890Z,5.86
2022-11-26T01:16:30.446Z,5.86
2022-11-26T01:18:31.810Z,5.8
2022-11-26T01:20:33.190Z,5.79
2022-11-26T01:22:35.010Z,5.71
2022-11-26T01:24:36.950Z,5.7
2022-11-26T01:26:38.038Z,5.67
2022-11-26T01:28:39.234Z,5.66
2022-11-26T01:30:40.323Z,5.64
2022-11-26T01:32:41.449Z,5.53
2022-11-26T01:34:43.330Z,5.46
2022-11-26T01:36:45.019Z,5.38
2022-11-26T01:38:46.749Z,5.34
2022-11-26T01:40:48.415Z,5.36
2022-11-26T01:42:49.809Z,5.34
2022-11-26T01:44:51.320Z,5.3
2022-11-26T01:46:53.114Z,5.26
2022-11-26T01:48:54.670Z,5.26
2022-11-26T01:50:56.111Z,5.19
2022-11-26T01:52:57.572Z,5.07
2022-11-26T01:54:58.937Z,5.06
2022-11-26T01:57:00.815Z,5.21
2022-11-26T01:59:02.360Z,5.14
2022-11-26T02:01:03.355Z,5.3
2022-11-26T02:03:04.880Z,5.3
2022-11-26T02:05:06.661Z,5.16
2022-11-26T02:07:08.051Z,5.16
2022-11-26T02:09:09.942Z,5.17
2022-11-26T02:11:11.590Z,5.1
2022-11-26T02:13:13.522Z,5.06
2022-11-26T02:15:15.428Z,5.05
2022-11-26T02:17:17.315Z,4.99
2022-11-26T02:19:19.036Z,4.78
2022-11-26T02:21:20.566Z,4.78
2022-11-26T02:23:22.000Z,4.75
2022-11-26T02:25:23.209Z,4.72
2022-11-26T02:27:24.639Z,4.59
2022-11-26T02:29:26.267Z,4.54
2022-11-26T02:31:27.788Z,4.58
2022-11-26T02:33:29.242Z,4.55
2022-11-26T02:35:30.263Z,4.52
2022-11-26T02:37:40.219Z,4.49
2022-11-26T02:39:33.456Z,4.51
2022-11-26T02:41:34.617Z,4.46
2022-11-26T02:43:36.197Z,4.49
2022-11-26T02:45:38.221Z,4.43
2022-11-26T02:47:39.589Z,4.66
2022-11-26T02:49:41.210Z,4.78
2022-11-26T02:51:42.902Z,4.51
2022-11-26T02:53:44.459Z,4.64
2022-11-26T02:55:45.811Z,4.51
2022-11-26T02:57:47.677Z,4.59
2022-11-26T02:59:49.401Z,4.39
2022-11-26T03:01:50.904Z,4.21
2022-11-26T03:03:52.125Z,4.14
2022-11-26T03:07:55.540Z,4.17
2022-11-26T03:09:57.006Z,4.27
2022-11-26T03:11:58.406Z,4.28
2022-11-26T03:14:00.229Z,4.47
2022-11-26T03:16:01.896Z,4.29
2022-11-26T03:18:03.599Z,4.39
2022-11-26T03:20:05.418Z,4.44
2022-11-26T03:22:06.439Z,4.44
2022-11-26T03:24:08.381Z,4.43
2022-11-26T03:26:09.569Z,4.6
2022-11-26T03:28:11.125Z,4.62
2022-11-26T03:30:12.934Z,4.53
2022-11-26T03:32:13.901Z,4.56
2022-11-26T03:34:15.493Z,4.51
2022-11-26T03:36:17.098Z,4.61
2022-11-26T03:38:18.256Z,4.68
2022-11-26T03:40:19.406Z,4.55
2022-11-26T03:42:20.825Z,4.68
2022-11-26T03:44:22.301Z,4.69
2022-11-26T03:46:23.839Z,4.54
2022-11-26T03:48:25.197Z,4.47
2022-11-26T03:50:26.784Z,4.52
2022-11-26T03:52:28.650Z,4.44
2022-11-26T03:54:30.351Z,4.6
2022-11-26T03:56:31.788Z,4.84
2022-11-26T03:58:33.015Z,4.81
2022-11-26T04:00:34.927Z,4.94
2022-11-26T04:02:36.782Z,4.95
2022-11-26T04:04:38.627Z,5
2022-11-26T04:06:39.493Z,5.04
2022-11-26T04:08:40.828Z,4.95
2022-11-26T04:10:42.106Z,4.77
2022-11-26T04:12:43.381Z,4.93
2022-11-26T04:14:45.280Z,4.87
2022-11-26T04:16:47.188Z,4.64
2022-11-26T04:18:48.886Z,4.71
2022-11-26T04:20:53.180Z,4.79
2022-11-26T04:22:52.380Z,4.72
2022-11-26T04:24:53.506Z,4.7
2022-11-26T04:26:54.572Z,4.61
2022-11-26T04:28:56.313Z,4.37
2022-11-26T04:30:57.315Z,4.36
2022-11-26T04:32:58.964Z,4.22
2022-11-26T04:35:00.855Z,4.28
2022-11-26T04:37:02.360Z,4.26
2022-11-26T04:39:03.960Z,4.12
2022-11-26T04:41:05.855Z,4.13
2022-11-26T04:43:07.400Z,4.03
2022-11-26T04:45:08.504Z,3.95
2022-11-26T04:47:10.486Z,4.11
2022-11-26T04:49:12.491Z,4.21
2022-11-26T04:51:14.005Z,4.31
2022-11-26T04:53:15.892Z,4.37
2022-11-26T04:55:17.341Z,4.53
2022-11-26T04:57:18.363Z,4.54
2022-11-26T04:59:19.637Z,4.69
2022-11-26T05:01:21.198Z,4.71
2022-11-26T05:03:22.374Z,4.77
2022-11-26T05:05:23.418Z,4.74
2022-11-26T05:07:24.792Z,4.58
2022-11-26T05:09:25.941Z,4.54
2022-11-26T05:11:27.310Z,4.46
2022-11-26T05:13:29.056Z,4.45
2022-11-26T05:15:30.474Z,4.56
2022-11-26T05:17:32.370Z,4.52
2022-11-26T05:19:33.965Z,4.58
2022-11-26T05:21:35.114Z,4.76
2022-11-26T05:23:36.259Z,4.79
2022-11-26T05:25:38.203Z,4.82
2022-11-26T05:27:39.745Z,4.79
2022-11-26T05:29:40.922Z,4.79
2022-11-26T05:31:42.201Z,4.82
2022-11-26T05:33:43.161Z,4.82
2022-11-26T05:35:44.761Z,4.89
2022-11-26T05:37:46.520Z,4.82
2022-11-26T05:39:48.346Z,4.82
2022-11-26T05:41:50.184Z,4.84
2022-11-26T05:43:51.293Z,4.78
2022-11-26T05:45:53.086Z,4.85
2022-11-26T05:47:54.054Z,4.79
2022-11-26T05:49:55.131Z,4.74
2022-11-26T05:51:57.094Z,4.68
2022-11-26T05:53:59.064Z,4.73
2022-11-26T05:56:00.454Z,4.72
2022-11-26T05:58:01.777Z,4.79
2022-11-26T06:00:03.694Z,4.86
2022-11-26T06:02:05.427Z,4.81
2022-11-26T06:04:07.169Z,4.6
2022-11-26T06:06:08.188Z,4.38
2022-11-26T06:08:10.064Z,4.25
2022-11-26T06:10:11.084Z,4.2
2022-11-26T06:12:12.821Z,4.32
2022-11-26T06:14:14.006Z,4.47
2022-11-26T06:16:15.589Z,4.37
2022-11-26T06:18:16.478Z,4.31
2022-11-26T06:20:18.206Z,4.44
2022-11-26T06:22:19.546Z,4.56
2022-11-26T06:24:21.128Z,4.54
2022-11-26T06:26:22.983Z,4.41
2022-11-26T06:28:24.565Z,4.45
2022-11-26T06:30:26.170Z,4.48
2022-11-26T06:32:27.629Z,4.56
2022-11-26T06:34:29.324Z,4.55
2022-11-26T06:36:31.007Z,4.51
2022-11-26T06:38:32.709Z,4.51
2022-11-26T06:40:34.596Z,4.57
2022-11-26T06:42:36.490Z,4.63
2022-11-26T06:44:37.634Z,4.66
2022-11-26T06:46:38.974Z,4.72
2022-11-26T06:48:40.199Z,4.78
2022-11-26T06:50:41.510Z,4.87
2022-11-26T06:52:42.760Z,4.87
2022-11-26T06:54:43.764Z,4.87
2022-11-26T06:56:44.911Z,4.84
2022-11-26T06:58:46.035Z,4.9
2022-11-26T07:00:47.298Z,4.89
2022-11-26T07:02:48.603Z,4.87
2022-11-26T07:04:49.895Z,4.9
2022-11-26T07:06:51.846Z,4.88
2022-11-26T07:08:52.946Z,4.89
2022-11-26T07:11:38.652Z,4.93
2022-11-26T07:13:40.014Z,4.94
2022-11-26T07:15:41.591Z,4.97
2022-11-26T07:17:42.945Z,4.98
2022-11-26T07:19:44.231Z,4.99
2022-11-26T07:21:45.422Z,5
2022-11-26T07:23:47.147Z,5.01
2022-11-26T07:25:48.259Z,5.01
2022-11-26T07:27:49.996Z,5.02
2022-11-26T07:29:51.832Z,5.03
2022-11-26T07:31:53.195Z,5.01
2022-11-26T07:33:54.986Z,5.02
2022-11-26T07:35:55.985Z,4.99
2022-11-26T07:37:57.217Z,5.05
2022-11-26T07:39:58.436Z,5.03
2022-11-26T07:41:59.428Z,5.03
2022-11-26T07:44:01.184Z,5.02
2022-11-26T07:46:02.584Z,5.05
2022-11-26T07:48:03.597Z,5.07
2022-11-26T07:50:05.296Z,5.13
2022-11-26T07:52:06.405Z,5.15
2022-11-26T07:54:07.736Z,5.17
2022-11-26T07:56:09.085Z,5.1
2022-11-26T07:58:10.261Z,5.11
2022-11-26T08:00:11.775Z,5.15
2022-11-26T08:02:13.253Z,5.17
2022-11-26T08:04:14.554Z,5.15
2022-11-26T08:06:15.968Z,5.16
2022-11-26T08:08:17.001Z,5.14
2022-11-26T08:10:18.850Z,5.15
2022-11-26T08:12:20.664Z,5.17
2022-11-26T08:14:21.649Z,5.14
2022-11-26T08:16:23.468Z,5.15
2022-11-26T08:18:25.099Z,5.17
2022-11-26T08:20:28.973Z,5.17
2022-11-26T08:22:28.509Z,5.15
2022-11-26T08:24:29.649Z,5.15
2022-11-26T08:26:36.062Z,5.18
2022-11-26T08:28:33.190Z,5.15
2022-11-26T08:30:34.197Z,5.22
2022-11-26T08:32:35.889Z,5.22
2022-11-26T08:34:37.881Z,5.27
2022-11-26T08:36:38.889Z,5.26
2022-11-26T08:38:40.431Z,5.29
2022-11-26T08:40:42.112Z,5.33
2022-11-26T08:42:43.795Z,5.4
2022-11-26T08:44:45.440Z,5.47
2022-11-26T08:46:46.435Z,5.42
2022-11-26T08:48:48.134Z,5.47
2022-11-26T08:50:49.602Z,5.49
2022-11-26T08:52:50.503Z,5.55
2022-11-26T08:54:52.318Z,5.57
2022-11-26T08:56:54.081Z,5.54
2022-11-26T08:58:55.378Z,5.51
2022-11-26T09:00:57.056Z,5.44
2022-11-26T09:02:58.720Z,5.53
2022-11-26T09:05:00.558Z,5.59
2022-11-26T09:07:01.607Z,5.6
2022-11-26T09:09:02.776Z,5.69
2022-11-26T09:11:04.215Z,5.63
2022-11-26T09:15:07.062Z,5.66
2022-11-26T09:17:08.268Z,5.72
2022-11-26T09:19:09.818Z,5.72
2022-11-26T09:21:11.722Z,5.77
2022-11-26T09:23:13.689Z,5.77
2022-11-26T09:25:15.519Z,5.83
2022-11-26T09:27:16.849Z,5.91
2022-11-26T09:29:18.391Z,5.84
2022-11-26T09:31:19.721Z,5.84
2022-11-26T09:33:20.788Z,5.89
2022-11-26T09:35:22.529Z,5.98
2022-11-26T09:37:24.143Z,5.93
2022-11-26T09:39:26.082Z,5.97
2022-11-26T09:41:27.711Z,5.82
2022-11-26T09:43:28.948Z,5.88
2022-11-26T09:45:30.493Z,5.82
2022-11-26T09:47:32.300Z,5.84
2022-11-26T09:49:33.587Z,5.93
2022-11-26T09:51:34.912Z,5.96
2022-11-26T09:53:36.562Z,5.96
2022-11-26T09:57:39.724Z,6.09
2022-11-26T09:59:41.278Z,6.09
2022-11-26T10:01:42.626Z,6.15
2022-11-26T10:03:43.917Z,6.21
2022-11-26T10:05:45.468Z,6.28
2022-11-26T10:07:46.868Z,6.28
2022-11-26T10:09:48.381Z,6.39
2022-11-26T10:11:49.748Z,6.32
2022-11-26T10:13:51.502Z,6.49
2022-11-26T10:15:53.238Z,6.56
2022-11-26T10:17:54.496Z,6.63
2022-11-26T10:19:55.592Z,6.73
2022-11-26T10:21:59.235Z,6.82
2022-11-26T10:23:58.276Z,6.72
2022-11-26T10:25:59.688Z,6.68
2022-11-26T10:28:00.952Z,6.7
2022-11-26T10:30:02.575Z,6.73
2022-11-26T10:32:03.824Z,6.78
2022-11-26T10:34:05.007Z,6.87
2022-11-26T10:36:06.435Z,6.88
2022-11-26T10:38:08.176Z,6.86
2022-11-26T10:40:09.319Z,6.92
2022-11-26T10:42:10.900Z,6.89
2022-11-26T10:44:12.627Z,6.82
2022-11-26T10:46:14.495Z,6.81
2022-11-26T10:48:16.152Z,6.87
2022-11-26T10:50:39.960Z,6.87
2022-11-26T10:52:18.525Z,7.11
2022-11-26T10:54:20.150Z,7.19
2022-11-26T10:56:21.234Z,7.32
2022-11-26T10:58:22.284Z,7.25
2022-11-26T11:00:24.081Z,7.24
2022-11-26T11:02:26.002Z,7.37
2022-11-26T11:04:27.422Z,7.46
2022-11-26T11:06:28.453Z,7.53
2022-11-26T11:08:29.677Z,7.5
2022-11-26T11:10:31.099Z,7.35
2022-11-26T11:12:32.075Z,7.26
2022-11-26T11:14:36.162Z,7.37
2022-11-26T11:16:35.156Z,7.38
2022-11-26T11:18:36.855Z,7.68
2022-11-26T11:20:38.383Z,8.28
2022-11-26T11:22:39.290Z,7.71
2022-11-26T11:24:41.407Z,7.87
2022-11-26T11:26:42.500Z,7.72
2022-11-26T11:28:43.619Z,8.06
2022-11-26T11:30:44.995Z,8.03
2022-11-26T11:32:46.065Z,7.9
2022-11-26T11:34:47.504Z,7.99
2022-11-26T11:36:48.775Z,7.8
2022-11-26T11:38:49.869Z,7.66
2022-11-26T11:40:51.399Z,7.7
2022-11-26T11:42:52.605Z,7.72
2022-11-26T11:44:54.463Z,7.75
2022-11-26T11:46:56.285Z,7.5
2022-11-26T11:48:57.764Z,7.49
2022-11-26T11:50:58.759Z,7.32
2022-11-26T11:53:00.006Z,7.34
2022-11-26T11:55:01.053Z,7.3
2022-11-26T11:57:10.813Z,7.27
2022-11-26T11:59:04.414Z,7.25
2022-11-26T12:01:06.319Z,7.22
2022-11-26T12:03:10.463Z,7.2
2022-11-26T12:05:09.852Z,7.06
2022-11-26T12:07:11.651Z,7.16
2022-11-26T12:09:13.069Z,7.09
2022-11-26T12:11:14.703Z,7.16
2022-11-26T12:13:16.170Z,7.28
2022-11-26T12:15:17.928Z,7.15
2022-11-26T12:17:19.133Z,7.16
2022-11-26T12:21:22.088Z,7.3
2022-11-26T12:23:24.753Z,7.33
2022-11-26T12:25:25.292Z,7.37
2022-11-26T12:27:26.808Z,7.29
2022-11-26T12:29:27.784Z,7.23
2022-11-26T12:31:29.573Z,7.24
2022-11-26T12:33:31.116Z,7.24
2022-11-26T12:35:32.546Z,7.23
2022-11-26T12:37:34.112Z,7.22
2022-11-26T12:39:35.281Z,7.24
2022-11-26T12:41:37.046Z,7.31
2022-11-26T12:43:38.480Z,7.2
2022-11-26T12:45:40.461Z,7.2
2022-11-26T12:47:41.682Z,7.25
2022-11-26T12:49:43.398Z,7.23
2022-11-26T12:51:45.061Z,7.33
2022-11-26T12:53:46.807Z,7.34
2022-11-26T12:55:47.967Z,7.25
2022-11-26T12:57:49.607Z,7.23
2022-11-26T12:59:51.524Z,7.27
2022-11-26T13:04:08.651Z,7.25
2022-11-26T13:05:56.039Z,7.21
2022-11-26T13:07:57.627Z,7.21
2022-11-26T13:09:59.459Z,7.21
2022-11-26T13:12:00.588Z,7.21
2022-11-26T13:14:01.869Z,7.25
2022-11-26T13:16:03.246Z,7.23
2022-11-26T13:18:04.470Z,7.22
2022-11-26T13:20:05.584Z,7.22
2022-11-26T13:22:07.393Z,7.21
2022-11-26T13:24:08.595Z,7.23
2022-11-26T13:26:09.577Z,7.26
2022-11-26T13:28:10.854Z,7.25
2022-11-26T13:30:12.003Z,7.33
2022-11-26T13:32:13.438Z,7.34
2022-11-26T13:34:14.422Z,7.31
2022-11-26T13:36:15.777Z,7.31
2022-11-26T13:38:17.759Z,7.35
2022-11-26T13:40:19.246Z,7.39
2022-11-26T13:42:21.140Z,7.38
2022-11-26T13:44:22.112Z,7.37
2022-11-26T13:46:23.353Z,7.39
2022-11-26T13:48:25.108Z,7.35
2022-11-26T13:50:26.689Z,7.42
2022-11-26T13:52:28.427Z,7.41
2022-11-26T13:54:30.099Z,7.39
2022-11-26T13:57:15.672Z,7.37
2022-11-26T13:59:17.321Z,7.35
2022-11-26T14:01:18.641Z,7.35
2022-11-26T14:03:19.802Z,7.34
2022-11-26T14:05:21.306Z,7.31
2022-11-26T14:07:22.736Z,7.29
2022-11-26T14:09:23.705Z,7.26
2022-11-26T14:11:25.554Z,7.24
2022-11-26T14:13:27.413Z,7.24
2022-11-26T14:15:28.470Z,7.25
2022-11-26T14:17:35.009Z,7.19
2022-11-26T14:19:31.641Z,7.14
2022-11-26T14:21:33.452Z,7.11
2022-11-26T14:23:34.658Z,7.11
2022-11-26T14:25:36.455Z,7.02
2022-11-26T14:27:38.219Z,6.98
2022-11-26T14:29:40.167Z,7.02
2022-11-26T14:31:41.850Z,6.99
2022-11-26T14:33:43.435Z,6.93
2022-11-26T14:35:44.440Z,6.92
2022-11-26T14:37:46.127Z,6.92
2022-11-26T14:39:47.104Z,6.87
2022-11-26T14:41:48.747Z,6.87
2022-11-26T14:43:50.020Z,6.89
2022-11-26T14:45:51.910Z,6.88
2022-11-26T14:47:53.601Z,6.82
2022-11-26T14:49:54.740Z,6.82
2022-11-26T14:51:56.466Z,6.84
2022-11-26T14:53:57.915Z,6.82
2022-11-26T14:55:59.417Z,6.79
2022-11-26T14:58:03.796Z,6.79
2022-11-26T15:00:02.695Z,6.78
2022-11-26T15:02:04.483Z,6.77
2022-11-26T15:04:05.492Z,6.74
2022-11-26T15:06:06.667Z,6.74
2022-11-26T15:08:07.802Z,6.73
2022-11-26T15:10:09.656Z,6.69
2022-11-26T15:12:11.556Z,6.64
2022-11-26T15:14:13.251Z,6.61
2022-11-26T15:16:14.605Z,6.58
2022-11-26T15:18:16.195Z,6.56
2022-11-26T15:20:17.253Z,6.55
2022-11-26T15:22:18.520Z,6.53
2022-11-26T15:24:20.010Z,6.5
2022-11-26T15:26:21.310Z,6.49
2022-11-26T15:28:23.254Z,6.51
2022-11-26T15:30:24.890Z,6.51
2022-11-26T15:32:26.223Z,6.54
2022-11-26T15:34:27.519Z,6.51
2022-11-26T15:36:28.514Z,6.5
2022-11-26T15:38:30.178Z,6.47
2022-11-26T15:40:31.717Z,6.5
2022-11-26T15:42:32.879Z,6.45
2022-11-26T15:44:39.133Z,6.44
2022-11-26T15:46:36.291Z,6.41
2022-11-26T15:48:51.358Z,6.42
2022-11-26T15:50:39.366Z,6.39
2022-11-26T15:52:40.481Z,6.4
2022-11-26T15:55:04.948Z,6.38
2022-11-26T15:56:43.332Z,6.33
2022-11-26T15:58:44.972Z,6.35
2022-11-26T16:00:46.135Z,6.31
2022-11-26T16:04:48.571Z,6.18
2022-11-26T16:06:50.256Z,6.09
2022-11-26T16:08:51.311Z,6.04
2022-11-26T16:10:52.997Z,5.97
2022-11-26T16:12:54.389Z,5.92
2022-11-26T16:14:56.071Z,5.87
2022-11-26T16:16:57.213Z,5.78
2022-11-26T16:18:58.888Z,5.72
2022-11-26T16:20:59.841Z,5.65
2022-11-26T16:23:01.303Z,5.56
2022-11-26T16:25:02.427Z,5.51
2022-11-26T16:27:04.127Z,5.49
2022-11-26T16:29:05.583Z,5.48
2022-11-26T16:31:07.058Z,5.47
2022-11-26T16:33:08.273Z,5.41
2022-11-26T16:35:30.099Z,5.31
2022-11-26T16:37:11.287Z,5.3
2022-11-26T16:39:13.054Z,5.24
2022-11-26T16:41:15.061Z,5.19
2022-11-26T16:43:16.035Z,5.14
2022-11-26T16:45:17.787Z,5.16
2022-11-26T16:47:19.609Z,5.18
2022-11-26T16:49:20.790Z,5.09
2022-11-26T16:51:22.510Z,5.09
2022-11-26T16:53:24.526Z,5.04
2022-11-26T16:55:26.413Z,4.98
2022-11-26T16:57:28.159Z,4.9
2022-11-26T16:59:29.336Z,4.97
2022-11-26T17:01:30.581Z,4.85
2022-11-26T17:03:32.037Z,4.92
2022-11-26T17:05:33.745Z,4.97
2022-11-26T17:07:35.267Z,5.1
2022-11-26T17:09:36.692Z,5.07
2022-11-26T17:11:38.086Z,5.04
2022-11-26T17:13:39.408Z,5.07
2022-11-26T17:15:40.693Z,4.94
2022-11-26T17:17:42.478Z,4.99
2022-11-26T17:19:43.665Z,4.99
2022-11-26T17:21:44.966Z,4.9
2022-11-26T17:23:46.741Z,4.8
2022-11-26T17:25:48.277Z,4.78
2022-11-26T17:27:50.065Z,4.76
2022-11-26T17:29:51.856Z,4.74
2022-11-26T17:31:53.647Z,4.62
2022-11-26T17:33:55.017Z,4.55
2022-11-26T17:35:56.817Z,4.6
2022-11-26T17:37:58.556Z,4.53
2022-11-26T17:40:00.150Z,4.51
2022-11-26T17:42:01.813Z,4.48
2022-11-26T17:44:03.145Z,4.47
2022-11-26T17:46:04.509Z,4.44
2022-11-26T17:48:05.858Z,4.42
2022-11-26T17:50:07.818Z,4.46
2022-11-26T17:52:09.022Z,4.5
2022-11-26T17:54:10.402Z,4.52
2022-11-26T17:56:12.082Z,4.48
2022-11-26T17:58:13.993Z,4.44
2022-11-26T18:00:15.180Z,4.37
2022-11-26T18:02:16.640Z,4.3
2022-11-26T18:04:17.696Z,4.09
2022-11-26T18:06:19.085Z,3.92
2022-11-26T18:08:20.489Z,3.64
2022-11-26T18:10:21.888Z,3.55
2022-11-26T18:12:25.093Z,3.6
2022-11-26T18:14:24.844Z,3.53
2022-11-26T18:16:26.184Z,3.51
2022-11-26T18:18:28.096Z,3.4
2022-11-26T18:20:29.646Z,3.49
2022-11-26T18:22:30.905Z,3.72
2022-11-26T18:24:32.909Z,3.74
2022-11-26T18:26:34.666Z,3.71
2022-11-26T18:28:35.961Z,3.56
2022-11-26T18:30:37.130Z,3.43
2022-11-26T18:32:39.088Z,3.34
2022-11-26T18:34:40.277Z,3.29
2022-11-26T18:36:41.777Z,3.19
2022-11-26T18:38:42.851Z,3.1
2022-11-26T18:40:43.947Z,3
2022-11-26T18:42:45.146Z,2.9
2022-11-26T18:44:46.312Z,2.88
2022-11-26T18:46:47.437Z,2.87
2022-11-26T18:48:48.900Z,2.8
2022-11-26T18:50:50.177Z,2.71
2022-11-26T18:52:51.585Z,2.57
2022-11-26T18:54:53.436Z,2.51
2022-11-26T18:56:55.127Z,2.42
2022-11-26T18:58:56.485Z,2.31
2022-11-26T19:00:58.402Z,2.31
2022-11-26T19:02:59.403Z,2.3
2022-11-26T19:05:00.510Z,2.2
2022-11-26T19:07:01.656Z,2.08
2022-11-26T19:09:03.147Z,2.08
2022-11-26T19:11:04.176Z,2.21
2022-11-26T19:13:05.854Z,2.3
2022-11-26T19:15:07.459Z,2.42
2022-11-26T19:17:08.611Z,2.42
2022-11-26T19:19:10.240Z,2.48
2022-11-26T19:21:11.415Z,2.75
2022-11-26T19:23:13.303Z,2.74
2022-11-26T19:25:14.991Z,2.65
2022-11-26T19:27:16.191Z,2.61
2022-11-26T19:29:17.524Z,2.48
2022-11-26T19:31:19.347Z,2.29
2022-11-26T19:33:21.046Z,2.26
2022-11-26T19:35:22.909Z,2.06
2022-11-26T19:37:24.692Z,1.89
2022-11-26T19:39:26.702Z,1.86
2022-11-26T19:41:28.686Z,1.78
2022-11-26T19:43:30.118Z,1.68
2022-11-26T19:45:31.833Z,1.69
2022-11-26T19:47:33.703Z,1.68
2022-11-26T19:49:34.796Z,1.63
2022-11-26T19:51:36.410Z,1.5
2022-11-26T19:53:37.550Z,1.62
2022-11-26T19:55:38.609Z,1.41
2022-11-26T19:57:40.519Z,1.7
2022-11-26T19:59:41.921Z,1.61
2022-11-26T20:01:43.209Z,1.54
2022-11-26T20:03:44.233Z,1.41
2022-11-26T20:05:45.346Z,1.38
2022-11-26T20:07:46.717Z,1.35
2022-11-26T20:09:48.380Z,1.29
2022-11-26T20:11:49.632Z,1.35
2022-11-26T20:13:50.786Z,1.32
2022-11-26T20:15:52.222Z,1.29
2022-11-26T20:17:53.438Z,1.26
2022-11-26T20:19:54.810Z,1.44
2022-11-26T20:21:56.206Z,1.48
2022-11-26T20:25:59.341Z,1.43
2022-11-26T20:28:00.761Z,1.33
2022-11-26T20:30:01.964Z,1.19
2022-11-26T20:32:03.071Z,1.13
2022-11-26T20:34:04.891Z,1.01
2022-11-26T20:36:06.205Z,0.86
2022-11-26T20:38:07.985Z,0.76
2022-11-26T20:40:09.194Z,0.76
2022-11-26T20:42:54.937Z,0.9
2022-11-26T20:44:56.741Z,1.03
2022-11-26T20:46:58.651Z,1.07
2022-11-26T20:49:00.392Z,1.06
2022-11-26T20:51:02.379Z,0.94
2022-11-26T20:53:04.026Z,1.04
2022-11-26T20:55:06.038Z,0.84
2022-11-26T20:57:07.270Z,0.82
2022-11-26T20:59:09.631Z,0.92
2022-11-26T21:01:10.424Z,0.96
2022-11-26T21:03:11.933Z,0.83
2022-11-26T21:05:13.137Z,0.82
2022-11-26T21:07:14.512Z,1.04
2022-11-26T21:09:16.299Z,1.06
2022-11-26T21:11:17.664Z,1.13
2022-11-26T21:13:18.751Z,1.18
2022-11-26T21:15:20.012Z,1.22
2022-11-26T21:17:21.288Z,1.04
2022-11-26T21:19:22.853Z,0.95
2022-11-26T21:21:24.510Z,0.88
2022-11-26T21:23:26.012Z,1.06
2022-11-26T21:25:27.413Z,1.01
2022-11-26T21:27:29.480Z,0.86
2022-11-26T21:29:31.137Z,0.7
2022-11-26T21:31:32.892Z,0.59
2022-11-26T21:33:34.626Z,0.46
2022-11-26T21:35:35.905Z,0.48
2022-11-26T21:37:37.342Z,0.37
2022-11-26T21:39:39.209Z,0.25
2022-11-26T21:41:40.398Z,0.39
2022-11-26T21:43:41.706Z,0.46
2022-11-26T21:45:43.661Z,0.59
2022-11-26T21:47:45.619Z,0.54
2022-11-26T21:49:46.717Z,0.71
2022-11-26T21:51:48.444Z,0.63
2022-11-26T21:53:50.344Z,0.52
2022-11-26T21:55:51.983Z,0.45
2022-11-26T21:57:53.114Z,0.44
2022-11-26T21:59:54.744Z,0.32
2022-11-26T22:01:56.306Z,0.15
2022-11-26T22:03:58.274Z,-0.02
2022-11-26T22:05:59.439Z,-0.17
2022-11-26T22:08:00.958Z,-0.26
2022-11-26T22:10:02.504Z,-0.24
2022-11-26T22:12:04.355Z,-0.2
2022-11-26T22:14:06.344Z,-0.13
2022-11-26T22:16:07.680Z,-0.05
2022-11-26T22:18:09.228Z,-0.02
2022-11-26T22:20:11.008Z,-0.05
2022-11-26T22:22:12.491Z,-0.12
2022-11-26T22:24:13.587Z,-0.14
2022-11-26T22:26:14.863Z,-0.13
2022-11-26T22:28:16.159Z,-0.01
2022-11-26T22:30:17.757Z,0.09
2022-11-26T22:32:19.120Z,0.13
2022-11-26T22:34:20.832Z,0.09
2022-11-26T22:36:22.418Z,0.1
2022-11-26T22:38:24.417Z,0.08
2022-11-26T22:40:25.637Z,0.05
2022-11-26T22:42:27.314Z,0.06
2022-11-26T22:44:28.423Z,0.05
2022-11-26T22:46:29.542Z,-0.02
2022-11-26T22:48:31.445Z,-0.02
2022-11-26T22:50:32.862Z,-0.06
2022-11-26T22:52:34.576Z,-0.07
2022-11-26T22:54:36.074Z,-0.07
2022-11-26T22:56:37.519Z,-0.1
2022-11-26T22:58:39.253Z,-0.14
2022-11-26T23:00:40.327Z,-0.15
2022-11-26T23:02:42.347Z,-0.19
2022-11-26T23:04:43.700Z,-0.1
2022-11-26T23:06:45.624Z,-0.11
2022-11-26T23:08:46.737Z,0
2022-11-26T23:10:48.240Z,-0.01
2022-11-26T23:12:49.617Z,0.03
2022-11-26T23:14:51.516Z,0.01
2022-11-26T23:16:53.122Z,0
2022-11-26T23:18:54.859Z,-0.02
2022-11-26T23:20:56.430Z,-0.07
2022-11-26T23:22:57.536Z,-0.15
2022-11-26T23:24:59.327Z,-0.2
2022-11-26T23:27:01.130Z,-0.18
2022-11-26T23:29:02.919Z,-0.17
2022-11-26T23:31:04.058Z,-0.17
2022-11-26T23:33:05.692Z,-0.26
2022-11-26T23:35:07.189Z,-0.35
2022-11-26T23:37:08.389Z,-0.35
2022-11-26T23:39:09.911Z,-0.34
2022-11-26T23:41:11.673Z,-0.34
2022-11-26T23:43:13.133Z,-0.41
2022-11-26T23:45:14.277Z,-0.47
2022-11-26T23:47:16.090Z,-0.49
2022-11-26T23:49:17.192Z,-0.53
2022-11-26T23:51:18.847Z,-0.53
2022-11-26T23:53:20.169Z,-0.56
2022-11-26T23:55:22.086Z,-0.55
2022-11-26T23:57:23.218Z,-0.56
2022-11-26T23:59:24.486Z,-0.67
